Time;durP1;ratioP1;P1;durP2;ratioP2;P2;SDS_P1;SDS_P2;PMS_P1;PMS_P2;Temp;Humidity;BMP_temperature;BMP_pressure;BME280_temperature;BME280_humidity;BME280_pressure;Samples;Min_cycle;Max_cycle;Signal;HPM_P1;HPM_P2
2023/08/28 00:01:33;;;;;;;5.90;3.10;;;;;;;30.79;39.83;100434.44;102774;1291;61334;-82
2023/08/28 00:03:58;;;;;;;5.30;3.10;;;;;;;30.79;39.82;100436.74;102824;1293;62403;-82
2023/08/28 00:06:24;;;;;;;4.10;3.10;;;;;;;30.80;39.84;100435.95;102812;1291;61315;-82
2023/08/28 00:08:49;;;;;;;4.70;3.30;;;;;;;30.79;39.90;100433.55;102864;1291;61583;-82
2023/08/28 00:11:15;;;;;;;3.80;2.80;;;;;;;30.79;39.89;100428.86;102807;1289;62100;-83
2023/08/28 00:13:41;;;;;;;3.90;2.90;;;;;;;30.79;39.87;100425.92;102775;1291;61444;-82
2023/08/28 00:16:06;;;;;;;4.70;3.00;;;;;;;30.79;39.88;100428.45;102823;1291;62449;-82
2023/08/28 00:18:32;;;;;;;4.90;3.00;;;;;;;30.78;39.90;100429.45;102783;1290;61334;-82
2023/08/28 00:20:58;;;;;;;4.40;2.80;;;;;;;30.77;39.89;100425.91;102933;1291;61396;-83
2023/08/28 00:23:25;;;;;;;4.20;3.00;;;;;;;30.77;39.86;100422.44;102472;1296;62589;-82
2023/08/28 00:25:50;;;;;;;4.40;2.70;;;;;;;30.77;39.85;100420.12;102356;1297;63915;-82
2023/08/28 00:28:16;;;;;;;3.50;2.80;;;;;;;30.77;39.86;100415.18;102428;1297;61709;-82
2023/08/28 00:30:41;;;;;;;5.90;3.10;;;;;;;30.76;39.86;100416.17;102381;1295;61489;-82
2023/08/28 00:33:07;;;;;;;3.90;2.70;;;;;;;30.77;39.85;100415.02;102497;1299;61507;-82
2023/08/28 00:35:32;;;;;;;4.80;3.00;;;;;;;30.76;39.76;100411.10;102458;1296;62851;-82
2023/08/28 00:37:58;;;;;;;3.90;3.00;;;;;;;30.77;39.95;100409.26;102256;1295;63895;-82
2023/08/28 00:40:23;;;;;;;4.30;2.90;;;;;;;30.76;39.87;100412.53;102266;1296;61926;-81
2023/08/28 00:42:49;;;;;;;4.50;3.00;;;;;;;30.76;39.86;100412.19;102428;1296;61442;-82
2023/08/28 00:45:14;;;;;;;4.00;2.90;;;;;;;30.75;39.91;100411.20;102528;1296;61524;-82
2023/08/28 00:47:40;;;;;;;4.70;2.80;;;;;;;30.76;39.88;100415.02;102481;1299;61517;-82
2023/08/28 00:50:06;;;;;;;3.60;2.50;;;;;;;30.76;39.97;100414.05;102431;1296;63757;-82
2023/08/28 00:52:32;;;;;;;5.10;2.70;;;;;;;30.76;39.94;100414.94;102500;1297;62085;-82
2023/08/28 00:54:57;;;;;;;4.40;2.80;;;;;;;30.76;39.86;100419.01;102652;1293;61479;-81
2023/08/28 00:57:23;;;;;;;4.50;3.00;;;;;;;30.76;39.90;100420.40;102790;1290;62391;-81
2023/08/28 00:59:50;;;;;;;4.10;2.70;;;;;;;30.75;39.84;100417.92;102782;1296;61376;-81
2023/08/28 01:02:16;;;;;;;4.80;3.00;;;;;;;30.75;39.91;100415.81;102766;1291;62698;-81
2023/08/28 01:04:41;;;;;;;5.60;3.10;;;;;;;30.75;39.90;100415.43;102850;1291;61515;-81
2023/08/28 01:07:25;;;;;;;5.20;3.20;;;;;;;30.76;39.88;100415.16;102756;1291;61347;-81
2023/08/28 01:10:11;;;;;;;4.70;3.30;;;;;;;30.75;39.91;100410.02;102862;1291;62198;-82
2023/08/28 01:12:43;;;;;;;4.80;2.90;;;;;;;30.74;39.79;100405.52;102815;1293;64925;-83
2023/08/28 01:15:17;;;;;;;4.60;2.90;;;;;;;30.74;39.90;100400.11;102779;1291;65571;-83
2023/08/28 01:17:44;;;;;;;3.90;2.90;;;;;;;30.74;39.83;100395.96;102877;1291;61347;-82
2023/08/28 01:20:13;;;;;;;3.80;2.80;;;;;;;30.74;39.84;100394.12;102800;1291;61741;-83
2023/08/28 01:22:54;;;;;;;4.70;3.00;;;;;;;30.74;39.88;100393.03;103037;1291;64814;-83
2023/08/28 01:25:19;;;;;;;4.20;2.80;;;;;;;30.73;39.92;100392.17;102893;1290;66191;-83
2023/08/28 01:27:46;;;;;;;3.80;2.80;;;;;;;30.74;39.84;100390.52;102739;1291;61406;-82
2023/08/28 01:30:14;;;;;;;3.80;2.80;;;;;;;30.74;39.84;100393.03;102751;1291;61439;-82
2023/08/28 01:32:40;;;;;;;3.70;2.90;;;;;;;30.74;39.93;100395.41;102819;1295;64076;-82
2023/08/28 01:35:14;;;;;;;5.30;3.10;;;;;;;30.74;39.88;100397.60;102756;1291;61529;-83
2023/08/28 01:37:58;;;;;;;4.40;3.00;;;;;;;30.73;39.87;100397.08;102791;1291;61738;-82
2023/08/28 01:40:26;;;;;;;4.40;2.70;;;;;;;30.73;39.96;100396.41;102830;1291;62126;-83
2023/08/28 01:42:52;;;;;;;4.10;2.80;;;;;;;30.73;39.95;100397.30;102872;1291;65191;-82
2023/08/28 01:45:19;;;;;;;4.00;2.90;;;;;;;30.73;39.90;100399.71;102760;1290;61507;-83
2023/08/28 01:47:44;;;;;;;3.80;3.10;;;;;;;30.73;39.91;100398.80;102800;1292;61934;-82
2023/08/28 01:50:10;;;;;;;4.30;3.00;;;;;;;30.72;39.88;100395.90;102807;1291;61428;-82
2023/08/28 01:52:35;;;;;;;4.70;2.50;;;;;;;30.72;39.85;100393.77;102920;1295;61450;-82
2023/08/28 01:55:01;;;;;;;4.40;3.00;;;;;;;30.73;39.89;100391.50;102834;1290;61569;-82
2023/08/28 01:57:26;;;;;;;4.50;2.90;;;;;;;30.73;39.84;100387.02;102883;1293;65699;-82
2023/08/28 01:59:52;;;;;;;4.20;2.80;;;;;;;30.72;39.94;100379.20;102805;1291;61427;-83
2023/08/28 02:02:18;;;;;;;4.20;2.90;;;;;;;30.73;39.85;100379.55;102716;1291;61485;-83
2023/08/28 02:04:44;;;;;;;4.80;3.10;;;;;;;30.72;39.93;100383.79;102764;1291;61812;-82
2023/08/28 02:07:09;;;;;;;5.10;3.10;;;;;;;30.72;39.87;100381.48;102741;1291;61384;-81
2023/08/28 02:09:36;;;;;;;4.40;2.90;;;;;;;30.72;39.83;100382.14;102906;1291;62701;-82
2023/08/28 02:12:02;;;;;;;4.30;2.70;;;;;;;30.72;39.90;100382.72;102814;1290;61357;-82
2023/08/28 02:14:27;;;;;;;4.60;2.90;;;;;;;30.72;39.81;100382.23;103010;1291;61436;-83
2023/08/28 02:16:53;;;;;;;3.60;2.70;;;;;;;30.72;39.82;100381.63;102781;1291;61714;-82
2023/08/28 02:19:19;;;;;;;4.10;2.80;;;;;;;30.72;39.92;100382.52;102824;1291;61396;-82
2023/08/28 02:21:45;;;;;;;4.60;3.00;;;;;;;30.72;39.88;100386.75;102800;1291;62303;-82
2023/08/28 02:24:10;;;;;;;4.40;2.80;;;;;;;30.71;39.90;100383.68;102826;1293;62442;-83
2023/08/28 02:26:36;;;;;;;4.70;3.00;;;;;;;30.71;39.88;100381.41;102721;1291;61984;-83
2023/08/28 02:29:02;;;;;;;4.10;2.60;;;;;;;30.72;39.99;100373.33;102791;1290;61420;-83
2023/08/28 02:31:27;;;;;;;4.20;2.80;;;;;;;30.71;39.90;100372.49;103005;1291;61398;-83
2023/08/28 02:33:53;;;;;;;4.90;2.80;;;;;;;30.71;39.89;100371.94;102781;1291;61430;-83
2023/08/28 02:36:19;;;;;;;4.00;2.80;;;;;;;30.71;39.64;100370.70;102819;1291;61389;-83
2023/08/28 02:38:44;;;;;;;4.30;2.80;;;;;;;30.71;39.85;100376.13;102790;1295;61756;-83
2023/08/28 02:41:10;;;;;;;3.80;2.90;;;;;;;30.70;39.91;100377.30;102922;1291;63674;-83
2023/08/28 02:43:37;;;;;;;4.60;2.90;;;;;;;30.71;39.91;100378.14;102759;1296;61414;-80
2023/08/28 02:46:03;;;;;;;5.60;3.10;;;;;;;30.70;39.89;100379.17;102752;1291;61394;-81
2023/08/28 02:48:29;;;;;;;3.90;2.70;;;;;;;30.70;39.93;100379.30;102865;1291;61443;-82
2023/08/28 02:50:55;;;;;;;4.10;2.80;;;;;;;30.70;39.98;100376.63;102834;1291;61410;-81
2023/08/28 02:53:20;;;;;;;5.00;3.00;;;;;;;30.70;39.94;100377.92;102772;1291;61408;-81
2023/08/28 02:56:09;;;;;;;3.80;2.70;;;;;;;30.70;39.93;100379.52;102777;1291;61529;-81
2023/08/28 02:58:35;;;;;;;3.80;2.70;;;;;;;30.70;39.88;100375.77;102590;1294;61405;-83
2023/08/28 03:01:00;;;;;;;5.30;2.90;;;;;;;30.69;39.86;100377.41;102763;1291;61263;-81
2023/08/28 03:03:27;;;;;;;3.90;2.80;;;;;;;30.69;39.89;100379.95;102965;1291;61940;-81
2023/08/28 03:05:52;;;;;;;4.00;2.60;;;;;;;30.69;39.87;100377.86;102800;1290;61471;-81
2023/08/28 03:08:20;;;;;;;4.60;2.70;;;;;;;30.69;39.85;100386.55;102856;1291;62359;-82
2023/08/28 03:10:46;;;;;;;3.80;2.70;;;;;;;30.69;39.84;100385.61;102769;1293;61436;-82
2023/08/28 03:13:11;;;;;;;4.00;2.90;;;;;;;30.69;39.90;100384.35;102770;1291;61386;-82
2023/08/28 03:15:37;;;;;;;4.20;2.90;;;;;;;30.70;39.86;100383.94;102764;1291;62135;-84
2023/08/28 03:18:03;;;;;;;4.00;2.90;;;;;;;30.69;39.84;100385.25;102797;1291;61978;-83
2023/08/28 03:20:28;;;;;;;3.90;2.80;;;;;;;30.69;39.95;100384.52;102833;1295;61401;-81
2023/08/28 03:22:55;;;;;;;4.10;2.70;;;;;;;30.69;39.85;100383.52;102725;1296;62128;-81
2023/08/28 03:25:20;;;;;;;4.00;2.80;;;;;;;30.69;39.87;100386.41;102801;1291;61862;-83
2023/08/28 03:27:46;;;;;;;4.60;3.00;;;;;;;30.69;39.92;100388.96;102787;1296;61438;-82
2023/08/28 03:30:12;;;;;;;3.80;2.90;;;;;;;30.68;39.80;100390.30;102840;1290;61847;-82
2023/08/28 03:32:37;;;;;;;4.40;3.00;;;;;;;30.68;39.81;100388.83;102691;1291;62303;-82
2023/08/28 03:35:03;;;;;;;4.00;2.60;;;;;;;30.68;39.80;100387.23;102683;1293;61440;-83
2023/08/28 03:37:29;;;;;;;5.40;2.80;;;;;;;30.69;39.93;100386.61;102750;1294;62242;-81
2023/08/28 03:39:54;;;;;;;4.50;3.00;;;;;;;30.68;39.90;100382.29;102584;1294;61393;-81
2023/08/28 03:42:20;;;;;;;4.60;3.10;;;;;;;30.68;39.98;100379.52;102357;1294;61591;-81
2023/08/28 03:44:46;;;;;;;4.30;3.10;;;;;;;30.68;39.82;100374.52;102607;1298;61390;-83
2023/08/28 03:47:12;;;;;;;4.20;3.00;;;;;;;30.68;39.83;100376.75;102653;1294;61517;-83
2023/08/28 03:49:37;;;;;;;5.00;2.90;;;;;;;30.68;39.82;100382.36;102652;1293;62285;-81
2023/08/28 03:52:04;;;;;;;3.90;2.80;;;;;;;30.68;39.84;100385.08;102754;1297;61464;-81
2023/08/28 03:54:30;;;;;;;3.80;2.70;;;;;;;30.68;39.90;100390.54;102470;1293;61640;-81
2023/08/28 03:56:55;;;;;;;4.30;2.90;;;;;;;30.68;39.88;100391.63;102575;1294;62580;-81
2023/08/28 03:59:21;;;;;;;4.50;2.70;;;;;;;30.68;39.86;100388.66;102542;1298;61415;-81
2023/08/28 04:01:48;;;;;;;4.50;3.00;;;;;;;30.67;39.96;100388.77;102635;1294;61594;-81
2023/08/28 04:04:13;;;;;;;4.60;2.90;;;;;;;30.67;39.87;100386.05;102719;1293;61448;-81
2023/08/28 04:06:39;;;;;;;4.40;3.30;;;;;;;30.67;39.71;100386.61;102957;1291;61297;-81
2023/08/28 04:09:05;;;;;;;5.10;3.50;;;;;;;30.67;39.75;100390.06;102961;1291;61411;-81
2023/08/28 04:11:31;;;;;;;7.90;3.30;;;;;;;30.67;39.70;100384.81;103096;1290;65806;-82
2023/08/28 04:13:56;;;;;;;5.40;3.30;;;;;;;30.67;39.70;100382.98;102875;1291;61444;-82
2023/08/28 04:16:22;;;;;;;7.70;3.50;;;;;;;30.66;39.57;100384.31;102900;1291;61965;-81
2023/08/28 04:18:47;;;;;;;5.00;3.40;;;;;;;30.66;39.43;100380.91;103131;1293;61432;-82
2023/08/28 04:21:14;;;;;;;7.90;3.50;;;;;;;30.65;39.43;100380.30;103319;1291;61473;-82
2023/08/28 04:23:40;;;;;;;10.60;4.30;;;;;;;30.65;39.36;100382.14;103366;1291;66761;-82
2023/08/28 04:26:06;;;;;;;8.40;3.40;;;;;;;30.65;39.26;100381.98;103232;1291;62011;-82
2023/08/28 04:28:32;;;;;;;7.60;3.60;;;;;;;30.65;39.22;100381.81;102956;1290;61411;-82
2023/08/28 04:30:57;;;;;;;7.30;3.30;;;;;;;30.65;39.11;100379.46;102909;1291;62449;-81
2023/08/28 04:33:23;;;;;;;6.60;3.80;;;;;;;30.63;39.00;100384.30;102866;1291;61295;-81
2023/08/28 04:35:49;;;;;;;5.90;3.50;;;;;;;30.63;38.92;100384.68;102791;1291;62509;-81
2023/08/28 04:38:14;;;;;;;8.90;4.00;;;;;;;30.64;38.88;100383.52;102809;1294;61404;-81
2023/08/28 04:40:40;;;;;;;9.30;3.70;;;;;;;30.63;38.87;100381.06;102700;1291;61862;-81
2023/08/28 04:43:06;;;;;;;9.30;4.10;;;;;;;30.63;38.71;100379.44;102824;1291;62245;-81
2023/08/28 04:45:31;;;;;;;12.10;4.20;;;;;;;30.63;38.70;100379.90;102858;1295;61329;-81
2023/08/28 04:47:57;;;;;;;8.90;4.00;;;;;;;30.62;38.59;100379.96;102757;1291;61492;-81
2023/08/28 04:50:22;;;;;;;9.50;4.10;;;;;;;30.61;38.64;100377.64;102800;1291;62268;-81
2023/08/28 04:52:48;;;;;;;10.80;4.00;;;;;;;30.61;38.55;100381.16;102801;1291;61417;-81
2023/08/28 04:55:13;;;;;;;10.50;3.70;;;;;;;30.61;38.45;100381.90;102770;1291;62603;-82
2023/08/28 04:57:39;;;;;;;9.90;4.20;;;;;;;30.60;38.47;100379.25;102831;1291;62099;-81
2023/08/28 05:00:08;;;;;;;10.70;4.60;;;;;;;30.60;38.42;100379.29;102795;1291;61437;-80
2023/08/28 05:02:34;;;;;;;9.20;4.30;;;;;;;30.59;38.34;100381.20;102792;1291;61519;-80
2023/08/28 05:05:00;;;;;;;7.40;4.00;;;;;;;30.59;38.35;100384.50;102488;1291;61458;-82
2023/08/28 05:07:27;;;;;;;13.10;4.20;;;;;;;30.58;38.31;100390.33;102856;1296;62093;-82
2023/08/28 05:09:53;;;;;;;10.70;4.20;;;;;;;30.58;38.19;100395.11;102943;1293;61283;-83
2023/08/28 05:12:20;;;;;;;8.20;4.30;;;;;;;30.58;38.25;100394.20;102932;1291;61473;-82
2023/08/28 05:14:46;;;;;;;9.80;4.50;;;;;;;30.58;38.17;100394.19;103151;1291;61401;-82
2023/08/28 05:17:11;;;;;;;9.00;4.60;;;;;;;30.58;38.20;100388.33;102950;1293;61390;-81
2023/08/28 05:19:37;;;;;;;10.80;4.50;;;;;;;30.59;38.09;100388.46;102871;1296;61928;-82
2023/08/28 05:22:03;;;;;;;10.50;4.70;;;;;;;30.59;38.03;100382.25;102947;1291;62448;-81
2023/08/28 05:24:29;;;;;;;10.20;4.90;;;;;;;30.59;37.98;100380.58;103095;1291;61334;-81
2023/08/28 05:26:55;;;;;;;10.30;4.80;;;;;;;30.60;37.96;100380.17;102936;1293;61391;-81
2023/08/28 05:29:20;;;;;;;11.10;5.10;;;;;;;30.60;37.89;100378.38;102789;1291;61406;-81
2023/08/28 05:31:46;;;;;;;9.90;4.60;;;;;;;30.56;37.92;100378.52;102834;1296;61556;-81
2023/08/28 05:34:11;;;;;;;11.70;4.80;;;;;;;30.54;37.86;100376.55;102920;1291;61324;-81
2023/08/28 05:36:38;;;;;;;10.90;4.80;;;;;;;30.54;37.65;100381.45;103010;1296;61329;-82
2023/08/28 05:39:04;;;;;;;10.20;5.40;;;;;;;30.54;37.73;100379.23;103016;1293;63945;-82
2023/08/28 05:41:30;;;;;;;15.90;5.50;;;;;;;30.54;37.53;100378.36;102936;1296;61408;-83
2023/08/28 05:43:55;;;;;;;18.10;5.60;;;;;;;30.52;37.49;100377.95;103145;1293;62822;-82
2023/08/28 05:46:21;;;;;;;16.90;5.80;;;;;;;30.51;37.47;100377.90;102872;1290;61461;-82
2023/08/28 05:48:46;;;;;;;21.50;6.10;;;;;;;30.51;37.29;100377.43;103102;1296;61399;-82
2023/08/28 05:51:12;;;;;;;21.40;6.20;;;;;;;30.49;37.30;100374.71;103621;1291;63793;-83
2023/08/28 05:53:38;;;;;;;31.80;7.00;;;;;;;30.48;37.50;100369.04;103190;1293;61391;-82
2023/08/28 05:56:03;;;;;;;21.50;6.40;;;;;;;30.48;37.80;100369.27;103361;1290;61392;-81
2023/08/28 05:58:29;;;;;;;21.00;5.80;;;;;;;30.45;38.12;100371.98;102887;1291;61519;-82
2023/08/28 06:00:54;;;;;;;18.50;7.00;;;;;;;30.42;38.13;100369.52;102626;1291;412602;-82
2023/08/28 06:03:21;;;;;;;21.20;6.70;;;;;;;30.42;38.37;100369.40;103016;1296;63811;-82
2023/08/28 06:05:46;;;;;;;25.50;6.50;;;;;;;30.42;38.64;100371.92;102830;1296;61425;-83
2023/08/28 06:08:12;;;;;;;17.90;7.20;;;;;;;30.43;38.65;100374.54;102778;1290;61322;-83
2023/08/28 06:10:40;;;;;;;21.50;6.80;;;;;;;30.43;38.51;100374.91;102909;1291;62195;-83
2023/08/28 06:13:07;;;;;;;22.70;6.40;;;;;;;30.41;38.37;100377.09;102916;1291;61329;-83
2023/08/28 06:15:32;;;;;;;15.80;5.90;;;;;;;30.40;38.33;100376.62;102996;1291;61400;-83
2023/08/28 06:17:58;;;;;;;13.50;5.60;;;;;;;30.38;38.06;100375.99;103009;1291;61416;-82
2023/08/28 06:20:23;;;;;;;17.40;6.50;;;;;;;30.38;37.88;100375.96;102929;1291;62167;-83
2023/08/28 06:22:49;;;;;;;15.70;6.70;;;;;;;30.40;37.90;100374.86;103266;1293;61347;-82
2023/08/28 06:25:16;;;;;;;18.10;9.80;;;;;;;30.41;37.85;100376.18;103187;1291;63805;-83
2023/08/28 06:27:41;;;;;;;20.30;11.70;;;;;;;30.42;37.77;100375.70;103432;1290;66797;-83
2023/08/28 06:30:07;;;;;;;16.80;11.30;;;;;;;30.42;37.51;100377.30;103105;1289;61279;-83
2023/08/28 06:32:33;;;;;;;15.50;8.20;;;;;;;30.43;37.48;100380.83;103383;1291;62832;-83
2023/08/28 06:35:01;;;;;;;15.10;7.40;;;;;;;30.43;37.27;100383.79;103494;1289;61319;-83
2023/08/28 06:37:27;;;;;;;13.00;7.10;;;;;;;30.43;37.04;100385.92;103129;1296;62569;-83
2023/08/28 06:39:53;;;;;;;15.20;8.50;;;;;;;30.44;36.87;100388.52;103084;1291;61407;-83
2023/08/28 06:42:19;;;;;;;20.00;8.30;;;;;;;30.46;36.81;100386.95;102967;1291;61409;-82
2023/08/28 06:44:44;;;;;;;16.60;11.60;;;;;;;30.47;36.72;100390.92;103190;1293;61305;-83
2023/08/28 06:47:18;;;;;;;19.30;9.30;;;;;;;30.48;36.56;100389.27;102944;1291;61385;-82
2023/08/28 06:49:43;;;;;;;18.30;9.00;;;;;;;30.47;36.36;100390.77;102842;1291;61351;-82
2023/08/28 06:52:09;;;;;;;15.60;6.10;;;;;;;30.49;36.09;100396.61;103085;1291;62604;-83
2023/08/28 06:54:36;;;;;;;10.10;4.30;;;;;;;30.45;35.70;100396.65;103215;1293;61373;-82
2023/08/28 06:57:01;;;;;;;12.20;5.60;;;;;;;30.40;34.87;100396.81;103100;1291;62367;-82
2023/08/28 06:59:27;;;;;;;18.80;5.20;;;;;;;30.39;34.78;100400.95;103069;1291;61860;-82
2023/08/28 07:01:53;;;;;;;13.50;6.00;;;;;;;30.43;34.95;100400.84;103037;1291;61395;-82
2023/08/28 07:04:19;;;;;;;17.30;5.30;;;;;;;30.45;35.03;100396.98;102983;1291;61379;-82
2023/08/28 07:06:44;;;;;;;12.20;4.80;;;;;;;30.46;34.63;100396.48;102974;1291;61845;-82
2023/08/28 07:09:11;;;;;;;11.20;4.40;;;;;;;30.46;34.48;100393.33;103214;1290;61526;-82
2023/08/28 07:11:37;;;;;;;11.60;4.40;;;;;;;30.47;34.52;100394.74;103045;1294;61294;-82
2023/08/28 07:14:03;;;;;;;11.50;5.10;;;;;;;30.49;34.32;100394.13;103009;1291;61457;-83
2023/08/28 07:16:28;;;;;;;10.70;4.10;;;;;;;30.49;34.04;100388.58;103447;1293;63651;-83
2023/08/28 07:18:54;;;;;;;12.20;4.50;;;;;;;30.49;33.85;100383.50;103304;1291;61787;-83
2023/08/28 07:21:19;;;;;;;9.30;4.50;;;;;;;30.48;33.68;100382.98;103057;1291;61406;-82
2023/08/28 07:23:46;;;;;;;9.50;3.90;;;;;;;30.48;33.42;100378.88;103086;1290;62211;-82
2023/08/28 07:26:12;;;;;;;8.20;4.10;;;;;;;30.49;33.38;100378.02;103059;1292;61285;-82
2023/08/28 07:28:37;;;;;;;13.20;4.90;;;;;;;30.51;33.43;100379.05;103116;1291;61923;-83
2023/08/28 07:31:03;;;;;;;12.70;4.40;;;;;;;30.52;33.15;100383.35;103074;1293;61430;-82
2023/08/28 07:33:29;;;;;;;10.50;4.40;;;;;;;30.52;33.17;100378.77;102997;1292;62995;-83
2023/08/28 07:35:55;;;;;;;9.80;4.10;;;;;;;30.54;33.30;100379.64;102896;1291;61401;-82
2023/08/28 07:38:21;;;;;;;8.70;4.00;;;;;;;30.55;33.10;100377.83;103221;1294;61565;-82
2023/08/28 07:40:47;;;;;;;9.90;4.10;;;;;;;30.55;32.84;100376.20;103158;1291;63612;-83
2023/08/28 07:43:13;;;;;;;9.60;4.10;;;;;;;30.54;32.69;100375.77;103052;1291;62501;-81
2023/08/28 07:45:39;;;;;;;8.90;3.90;;;;;;;30.53;32.64;100379.52;102927;1291;61745;-82
2023/08/28 07:48:05;;;;;;;11.30;4.70;;;;;;;30.53;32.46;100377.91;103113;1291;61247;-82
2023/08/28 07:50:30;;;;;;;15.90;4.50;;;;;;;30.51;32.31;100379.95;103120;1293;61358;-82
2023/08/28 07:52:57;;;;;;;10.50;4.20;;;;;;;30.48;32.02;100380.27;103040;1293;61614;-82
2023/08/28 07:55:23;;;;;;;9.10;4.10;;;;;;;30.47;32.00;100381.68;103575;1291;61474;-82
2023/08/28 07:57:48;;;;;;;7.00;4.20;;;;;;;30.49;32.11;100377.73;103044;1293;61770;-82
2023/08/28 08:00:20;;;;;;;12.00;3.60;;;;;;;30.48;32.12;100379.94;103009;1293;61297;-82
2023/08/28 08:02:47;;;;;;;8.30;4.30;;;;;;;30.46;31.72;100382.05;103011;1291;63946;-83
2023/08/28 08:05:13;;;;;;;10.30;4.00;;;;;;;30.46;31.56;100380.41;103210;1290;66930;-83
2023/08/28 08:07:40;;;;;;;9.40;4.00;;;;;;;30.48;31.41;100385.16;103208;1294;61291;-84
2023/08/28 08:10:07;;;;;;;11.20;4.00;;;;;;;30.50;31.53;100379.67;103337;1293;61314;-85
2023/08/28 08:12:33;;;;;;;8.00;4.00;;;;;;;30.52;31.65;100374.17;103268;1299;62739;-84
2023/08/28 08:14:58;;;;;;;9.40;4.30;;;;;;;30.56;31.67;100369.96;103185;1293;61409;-83
2023/08/28 08:17:24;;;;;;;9.80;4.40;;;;;;;30.58;31.89;100367.73;103444;1294;61599;-82
2023/08/28 08:19:50;;;;;;;7.10;3.70;;;;;;;30.59;31.92;100358.80;103355;1294;61602;-84
2023/08/28 08:22:16;;;;;;;6.90;4.20;;;;;;;30.61;32.03;100354.77;103146;1299;61419;-84
2023/08/28 08:24:42;;;;;;;10.80;4.40;;;;;;;30.63;32.14;100356.02;102949;1299;61361;-83
2023/08/28 08:27:07;;;;;;;10.70;4.60;;;;;;;30.64;31.88;100355.69;102918;1299;66238;-84
2023/08/28 08:29:34;;;;;;;8.60;4.40;;;;;;;30.65;31.90;100356.88;103104;1294;61573;-84
2023/08/28 08:31:59;;;;;;;9.40;4.20;;;;;;;30.66;31.83;100352.45;102926;1293;61809;-83
2023/08/28 08:34:25;;;;;;;8.60;4.30;;;;;;;30.67;31.88;100348.52;102753;1294;61605;-83
2023/08/28 08:36:50;;;;;;;14.10;4.00;;;;;;;30.66;31.80;100345.49;102691;1294;61418;-82
2023/08/28 08:39:16;;;;;;;8.60;3.90;;;;;;;30.67;31.25;100345.69;102919;1293;61467;-82
2023/08/28 08:41:42;;;;;;;10.60;4.70;;;;;;;30.69;31.02;100343.45;103201;1291;62488;-83
2023/08/28 08:44:08;;;;;;;7.10;4.60;;;;;;;30.70;31.02;100345.15;103229;1290;62192;-83
2023/08/28 08:46:34;;;;;;;10.20;4.80;;;;;;;30.71;31.13;100346.72;103044;1291;61367;-83
2023/08/28 08:49:00;;;;;;;10.50;4.00;;;;;;;30.72;30.98;100343.34;103101;1296;61459;-83
2023/08/28 08:51:29;;;;;;;9.90;4.60;;;;;;;30.73;30.39;100340.53;103164;1296;61398;-82
2023/08/28 08:54:06;;;;;;;8.80;4.30;;;;;;;30.72;30.11;100335.16;103144;1292;61317;-82
2023/08/28 08:56:33;;;;;;;10.50;4.20;;;;;;;30.72;30.11;100332.39;103237;1289;63971;-83
2023/08/28 08:58:59;;;;;;;8.30;4.30;;;;;;;30.72;29.94;100329.88;103128;1296;65668;-82
2023/08/28 09:01:26;;;;;;;8.10;4.30;;;;;;;30.72;30.18;100326.02;103279;1290;61332;-82
2023/08/28 09:03:51;;;;;;;7.10;4.50;;;;;;;30.73;30.44;100323.81;103148;1296;61361;-82
2023/08/28 09:06:17;;;;;;;7.50;4.20;;;;;;;30.73;30.50;100323.27;103052;1291;61495;-83
2023/08/28 09:08:43;;;;;;;12.40;4.10;;;;;;;30.72;30.41;100321.66;103060;1294;61404;-82
2023/08/28 09:11:08;;;;;;;8.50;4.00;;;;;;;30.73;30.25;100318.96;103048;1295;61431;-83
2023/08/28 09:13:35;;;;;;;8.80;4.20;;;;;;;30.75;30.30;100318.46;103007;1293;61298;-82
2023/08/28 09:16:00;;;;;;;8.40;4.20;;;;;;;30.74;30.26;100319.42;103033;1296;61396;-83
2023/08/28 09:18:26;;;;;;;7.30;4.20;;;;;;;30.74;30.03;100317.98;103275;1291;61379;-83
2023/08/28 09:21:08;;;;;;;8.20;4.50;;;;;;;30.75;29.94;100311.21;103086;1296;63203;-82
2023/08/28 09:23:46;;;;;;;7.60;4.10;;;;;;;30.75;29.85;100312.31;103564;1294;62217;-83
2023/08/28 09:26:17;;;;;;;8.00;4.10;;;;;;;30.75;29.88;100304.27;103339;1293;61618;-83
2023/08/28 09:28:58;;;;;;;6.00;3.80;;;;;;;30.76;30.01;100303.27;103326;1293;73199;-83
2023/08/28 09:31:30;;;;;;;6.20;4.00;;;;;;;30.77;29.81;100295.33;102970;1291;65735;-83
2023/08/28 09:33:56;;;;;;;6.80;3.60;;;;;;;30.81;29.17;100296.54;103042;1291;61425;-81
2023/08/28 09:36:26;;;;;;;8.40;4.10;;;;;;;30.82;28.82;100292.88;103011;1296;61429;-82
2023/08/28 09:38:51;;;;;;;6.40;3.90;;;;;;;30.82;28.92;100298.30;102925;1291;64683;-81
2023/08/28 09:41:18;;;;;;;9.30;4.00;;;;;;;30.83;28.77;100293.16;102868;1289;61481;-82
2023/08/28 09:43:44;;;;;;;9.80;4.20;;;;;;;30.84;28.74;100288.27;103127;1293;61835;-82
2023/08/28 09:46:09;;;;;;;10.40;4.50;;;;;;;30.85;28.76;100281.88;102910;1292;61354;-83
2023/08/28 09:48:35;;;;;;;15.00;4.00;;;;;;;30.84;28.95;100281.60;102901;1293;61509;-82
2023/08/28 09:51:04;;;;;;;7.50;4.00;;;;;;;30.85;28.80;100283.48;102994;1291;62172;-82
2023/08/28 09:53:30;;;;;;;7.40;4.00;;;;;;;30.87;28.59;100272.26;102970;1289;61352;-83
2023/08/28 09:55:56;;;;;;;6.60;3.80;;;;;;;30.88;28.51;100263.05;102803;1297;61400;-83
2023/08/28 09:58:25;;;;;;;6.90;3.80;;;;;;;30.88;28.40;100263.29;102871;1291;61412;-83
2023/08/28 10:00:52;;;;;;;5.70;3.80;;;;;;;30.87;28.37;100260.05;102948;1293;65704;-82
2023/08/28 10:03:20;;;;;;;7.50;4.20;;;;;;;30.88;28.48;100256.21;103091;1292;61271;-82
2023/08/28 10:05:45;;;;;;;6.40;3.80;;;;;;;30.88;28.38;100250.85;102839;1291;61333;-82
2023/08/28 10:08:12;;;;;;;6.50;4.00;;;;;;;30.89;28.40;100249.34;102858;1289;62141;-82
2023/08/28 10:10:50;;;;;;;7.70;4.00;;;;;;;30.89;28.39;100250.94;103212;1296;61318;-82
2023/08/28 10:13:20;;;;;;;8.40;3.80;;;;;;;30.89;28.42;100250.07;103182;1290;61286;-82
2023/08/28 10:16:03;;;;;;;8.20;3.60;;;;;;;30.91;28.27;100247.11;103153;1294;61421;-82
2023/08/28 10:18:38;;;;;;;8.30;3.90;;;;;;;30.92;28.31;100243.70;102988;1292;64125;-83
2023/08/28 10:21:06;;;;;;;8.10;3.80;;;;;;;30.95;28.24;100238.82;103100;1290;65827;-82
2023/08/28 10:23:36;;;;;;;8.20;3.50;;;;;;;30.99;28.15;100236.48;102973;1291;61408;-82
2023/08/28 10:26:02;;;;;;;7.70;3.50;;;;;;;31.00;28.06;100234.95;103008;1291;61323;-83
2023/08/28 10:28:31;;;;;;;6.90;3.80;;;;;;;31.02;27.94;100230.67;102954;1294;63911;-82
2023/08/28 10:30:59;;;;;;;8.50;3.80;;;;;;;31.01;27.97;100224.61;103219;1292;65695;-83
2023/08/28 10:33:25;;;;;;;6.10;3.50;;;;;;;31.00;27.98;100224.08;103516;1289;61314;-83
2023/08/28 10:35:54;;;;;;;10.20;3.50;;;;;;;30.99;28.04;100224.70;103515;1295;61376;-83
2023/08/28 10:38:20;;;;;;;8.00;3.70;;;;;;;30.99;28.04;100221.05;103228;1294;63890;-81
2023/08/28 10:40:48;;;;;;;8.20;4.00;;;;;;;31.00;28.14;100220.27;103674;1296;61459;-82
2023/08/28 10:43:13;;;;;;;6.00;3.80;;;;;;;31.00;28.37;100219.55;105508;1294;61398;-82
2023/08/28 10:45:39;;;;;;;7.30;3.80;;;;;;;31.00;28.68;100215.86;103234;1296;61263;-82
2023/08/28 10:48:06;;;;;;;5.80;3.90;;;;;;;30.99;28.96;100209.95;103285;1304;61378;-82
2023/08/28 10:50:38;;;;;;;4.80;3.70;;;;;;;30.99;29.30;100205.83;106125;1290;61236;-82
2023/08/28 10:53:05;;;;;;;6.50;3.90;;;;;;;30.99;29.52;100209.75;104805;1289;61412;-82
2023/08/28 10:55:30;;;;;;;6.20;3.90;;;;;;;31.00;29.72;100209.37;103820;1291;59220;-82
2023/08/28 10:58:01;;;;;;;5.50;3.60;;;;;;;31.01;29.87;100208.15;103012;1292;62563;-82
2023/08/28 11:00:28;;;;;;;5.30;3.80;;;;;;;31.00;29.95;100211.12;103134;1294;65735;-81
2023/08/28 11:03:10;;;;;;;7.60;3.90;;;;;;;31.00;30.16;100207.66;103005;1292;61387;-82
2023/08/28 11:05:38;;;;;;;7.30;3.70;;;;;;;31.00;30.26;100205.71;102740;1292;62581;-81
2023/08/28 11:08:04;;;;;;;7.50;3.90;;;;;;;30.99;30.18;100203.58;103081;1301;63874;-82
2023/08/28 11:10:33;;;;;;;7.10;4.00;;;;;;;30.98;30.39;100198.23;102797;1290;66017;-82
2023/08/28 11:13:05;;;;;;;5.50;3.90;;;;;;;30.98;30.48;100198.11;102739;1294;61319;-81